Whiting Field Naval Air Station North Airport
KNSE : now visible

Airfield :











YOU CAN JOIN US ON...

 
LOGIN :

Register | Disclaimer

   EN    FR    IT 

 









Legend :    VFR   Marginal VFR   IFR   Intensive IFR   Very Intensive IFR
Visi :
Ceiling :
>= 8 km
>= 3000ft
5 to 8 km
1000 to 3000 ft
1500m to 5 km
500 to 1000 ft
800 to 1500m
200 to 500 ft
< 800m
< 200 ft
Symbols :   Thunderstorms  Fog  Heavy snow  Heavy precipitations  Wind > 20 kt






- Airport Elevation : 199 ft


KNSE - Whiting Field Naval Air Station North

CURRENT METAR :
  • 291456Z VRB04KT 10SM FEW024 SCT045 BKN250 27/20 A3004 RMK AO2 SLP155 6//// T02670200 51006 PNO $

EXPIRED METARs :
  • 291356Z VRB04KT 10SM FEW012 FEW020 SCT048 BKN250 26/22 A3003 RMK AO2 SLP155 T02610222 PNO $

TAF TAF KNSE
Valid from the 29 at 15:00 until the 30 at 15:00 UTC


2915/3015 VRB06KT 9999 VCSH SCT025 SCT050 BKN120 BKN250 QNH3002INS
FM291700 19010KT 9999 VCTS SCT025CB BKN050 BKN120 BKN250 QNH2996INS
TEMPO 2918/2923 VRB15G25KT 3200 TSRA SCT015 BKN025CB OVC050
FM300100 20008KT 9999 SCT030 SCT050 BKN250 QNH2997INS
FM300500 24006KT 9999 FEW010 SCT030 SCT100 QNH2993INS
FM300900 VRB05KT 9999 SCT008 BKN025 BKN080 BKN250 QNH2993INS
FM301300 VRB03KT 8000 BR VCSH SCT008 BKN025 OVC080 QNH2996INS T29/2920Z T21/3012Z FN20071
KZJX FIR / North America



MET'MAP, your aeronautical weather chart ! - Copyright ORBIFLY December 2007 - Disclaimer

ORBIFLY MET'MAP TEAM :

Programming & Development : Alexandra Zaïnal
Concept & original design : Baudouin d'Aumeries
Assistance for programming : Marc-Olivier Méhu
Technical & hardware support : Manuel Goepfert

Contact : metmap@orbifly.com




SOURCES & CREDITS :

   NOAA       Earth
Advisory